Airfield :
LOGIN :

Register | Disclaimer

   EN    FR    IT 

 










Legend :    VFR   Marginal VFR   IFR   Intensive IFR   Very Intensive IFR
Visi :
Ceiling :
>= 8 km
>= 3000ft
5 to 8 km
1000 to 3000 ft
1500m to 5 km
500 to 1000 ft
800 to 1500m
200 to 500 ft
< 800m
< 200 ft
Symbols :   Thunderstorms  Fog  Heavy snow  Heavy precipitations  Wind > 20 kt
SIGMETs :     Misc.  Thunderstorms  Icing  Turbulence  Mountain Waves  Volcanic Ashes






- Airport Elevation : 1548 ft


LKNA - Náměšť Air Base

CURRENT METAR :
  • 151700Z 13018KT 7000 OVC005 08/08 Q1007 NOSIG RMK YLO YLO

EXPIRED METARs :
  • 151637Z 13020KT 7000 OVC005 08/08 Q1007 RMK YLO
  • 151600Z 13020KT 8000 OVC006 08/08 Q1007 NOSIG RMK YLO YLO
  • 151500Z 12022KT 8000 OVC007 08/07 Q1006 NOSIG RMK GRN GRN

TAF TAF LKNA
Valid from the 15 at 12:00 until the 16 at 12:00 UTC


151100Z 1512/1612 12017KT 8000 BKN010
TEMPO 1512/1612 12018G30KT
TEMPO 1518/1523 4000 BR OVC006
PROB40 1600/1606 3000 -RA BR OVC008



MET'MAP, your aeronautical weather chart ! - Copyright ORBIFLY December 2007 - Disclaimer

ORBIFLY MET'MAP TEAM :

Programming & Development : Alexandra Zaïnal
Concept & Development : Baudouin d'Aumeries
Co-Development & Prog : Marc-Olivier Méhu
Technical & hardware support : Manuel Goepfert

Contact : metmap@orbifly.com




SOURCES & CREDITS :

   NOAA